Startpagina
METAR-TAF:

METAR-TAF

Vliegvelden :

Poprad, Slowakije

breedte: 49-04N, lengte: 020-15E, hoogte: 694 m

Actueel weer

Dit bericht is 19 minuten geleden gemaakt, om 11:00 UTC
Wind 13 kt uit het noordoosten
Temperatuur -2°C
Vochtigheid 80%
Druk 1015 hPa
Zicht: 5000 m
Verspreide wolken op 1200 ft
Gebroken wolken op 4000 ft
lichte sneeuw

METAR: LZTT 191100Z 04013KT 5000 -SN SCT012 BKN040 M02/M05 Q1015 TEMPO BKN009 BKN040

Tijdstip: 12:19 (11:19 UTC)

Verwachting

Dit bericht is 6 uur en het 19 minuten geleden gemaakt, om 05:00 UTC
Verwachting geldig van 19 om 06 UTC tot 20 om 06 UTC
Wind 7 kt uit het oostnoordoosten
Zicht 10 km of meer
Weinig wolken op 3400 ft
Geheel bewolkt op 6000 ft
Tijdelijke
van 19 om 10 UTC tot 19 om 15 UTC
Zicht: 4000 m
Gebroken wolken op 1000 ft
Geheel bewolkt op 2000 ft
lichte sneeuw

TAF: LZTT 190500Z 1906/2006 07007KT 9999 FEW034 OVC060 TEMPO 1910/1915 4000 -SN BKN010 OVC020

Waarnemingen en weersverwachtingen van meer dan 4000 vliegvelden (METAR en TAF).

De beschikbare stations zijn de gele en rode punten op de kaart.

Ga met uw muis naar het station om de naam te zien.

Klik dan om waarnemingen en weersverwachtingen te zien.

kaart wijzigen: klik op de groene knoppen met een zwart kruis om in te zoomen, op de groene knop met een streepje om uit te zoomen of op de groene pijlen voor aangrenzende kaarten.


METAR-TAF: